sensor_id;sensor_type;location;lat;lon;timestamp;pressure;altitude;pressure_sealevel;temperature;humidity
50105;BME280;47690;39.202;-77.198;2023-08-06T00:00:55;100079.50;;;26.99;73.80
50105;BME280;47690;39.202;-77.198;2023-08-06T00:03:27;100079.78;;;26.96;74.38
50105;BME280;47690;39.202;-77.198;2023-08-06T00:05:57;100068.66;;;26.92;74.55
50105;BME280;47690;39.202;-77.198;2023-08-06T00:08:29;100081.03;;;26.92;74.30
50105;BME280;47690;39.202;-77.198;2023-08-06T00:11:01;100082.84;;;26.91;74.88
50105;BME280;47690;39.202;-77.198;2023-08-06T00:13:41;100077.78;;;26.88;75.09
50105;BME280;47690;39.202;-77.198;2023-08-06T00:16:13;100084.88;;;26.88;75.34
50105;BME280;47690;39.202;-77.198;2023-08-06T00:18:44;100088.75;;;26.83;75.42
50105;BME280;47690;39.202;-77.198;2023-08-06T00:21:15;100084.56;;;26.81;75.13
50105;BME280;47690;39.202;-77.198;2023-08-06T00:23:45;100092.78;;;26.78;75.84
50105;BME280;47690;39.202;-77.198;2023-08-06T00:26:17;100087.59;;;26.76;75.71
50105;BME280;47690;39.202;-77.198;2023-08-06T00:28:46;100091.22;;;26.75;76.18
50105;BME280;47690;39.202;-77.198;2023-08-06T00:31:17;100095.81;;;26.73;75.77
50105;BME280;47690;39.202;-77.198;2023-08-06T00:33:47;100094.28;;;26.70;75.92
50105;BME280;47690;39.202;-77.198;2023-08-06T00:36:21;100088.25;;;26.68;76.58
50105;BME280;47690;39.202;-77.198;2023-08-06T00:38:53;100081.31;;;26.67;76.44
50105;BME280;47690;39.202;-77.198;2023-08-06T00:41:29;100088.66;;;26.64;76.42
50105;BME280;47690;39.202;-77.198;2023-08-06T00:43:59;100081.81;;;26.61;76.69
50105;BME280;47690;39.202;-77.198;2023-08-06T00:46:33;100086.16;;;26.62;76.67
50105;BME280;47690;39.202;-77.198;2023-08-06T00:49:09;100086.56;;;26.57;76.64
50105;BME280;47690;39.202;-77.198;2023-08-06T00:51:45;100085.72;;;26.57;76.83
50105;BME280;47690;39.202;-77.198;2023-08-06T00:54:15;100085.16;;;26.53;76.96
50105;BME280;47690;39.202;-77.198;2023-08-06T00:56:50;100085.16;;;26.53;77.00
50105;BME280;47690;39.202;-77.198;2023-08-06T00:59:22;100079.00;;;26.53;77.02
50105;BME280;47690;39.202;-77.198;2023-08-06T01:01:53;100084.28;;;26.53;77.53
50105;BME280;47690;39.202;-77.198;2023-08-06T01:04:23;100089.72;;;26.51;77.52
50105;BME280;47690;39.202;-77.198;2023-08-06T01:10:04;100089.97;;;26.48;77.84
50105;BME280;47690;39.202;-77.198;2023-08-06T01:16:30;100094.94;;;26.41;78.12
50105;BME280;47690;39.202;-77.198;2023-08-06T01:19:19;100095.19;;;26.38;78.39
50105;BME280;47690;39.202;-77.198;2023-08-06T01:22:57;100106.88;;;26.36;78.82
50105;BME280;47690;39.202;-77.198;2023-08-06T01:26:54;100104.59;;;26.31;78.62
50105;BME280;47690;39.202;-77.198;2023-08-06T01:30:06;100115.69;;;26.25;78.76
50105;BME280;47690;39.202;-77.198;2023-08-06T01:33:00;100114.97;;;26.23;79.15
50105;BME280;47690;39.202;-77.198;2023-08-06T01:35:38;100110.91;;;26.18;79.17
50105;BME280;47690;39.202;-77.198;2023-08-06T01:38:09;100117.00;;;26.19;79.47
50105;BME280;47690;39.202;-77.198;2023-08-06T01:40:43;100116.31;;;26.17;79.34
50105;BME280;47690;39.202;-77.198;2023-08-06T01:43:15;100120.16;;;26.13;79.53
50105;BME280;47690;39.202;-77.198;2023-08-06T01:45:50;100121.97;;;26.12;79.99
50105;BME280;47690;39.202;-77.198;2023-08-06T01:48:26;100127.38;;;26.11;79.63
50105;BME280;47690;39.202;-77.198;2023-08-06T01:50:57;100133.72;;;26.08;79.67
50105;BME280;47690;39.202;-77.198;2023-08-06T01:53:29;100132.19;;;26.05;79.73
50105;BME280;47690;39.202;-77.198;2023-08-06T01:55:59;100138.41;;;26.04;79.97
50105;BME280;47690;39.202;-77.198;2023-08-06T01:58:35;100126.31;;;26.02;79.87
50105;BME280;47690;39.202;-77.198;2023-08-06T02:01:10;100127.28;;;26.01;79.56
50105;BME280;47690;39.202;-77.198;2023-08-06T02:03:42;100128.38;;;25.98;79.78
50105;BME280;47690;39.202;-77.198;2023-08-06T02:06:17;100130.31;;;25.96;80.37
50105;BME280;47690;39.202;-77.198;2023-08-06T02:08:53;100133.06;;;25.95;80.09
50105;BME280;47690;39.202;-77.198;2023-08-06T02:11:35;100131.66;;;25.90;80.37
50105;BME280;47690;39.202;-77.198;2023-08-06T02:14:13;100132.63;;;25.89;80.58
50105;BME280;47690;39.202;-77.198;2023-08-06T02:16:45;100136.47;;;25.85;80.15
50105;BME280;47690;39.202;-77.198;2023-08-06T02:19:16;100135.75;;;25.83;80.42
50105;BME280;47690;39.202;-77.198;2023-08-06T02:21:47;100146.44;;;25.82;80.53
50105;BME280;47690;39.202;-77.198;2023-08-06T02:24:17;100136.97;;;25.79;80.32
50105;BME280;47690;39.202;-77.198;2023-08-06T02:26:47;100139.75;;;25.77;80.66
50105;BME280;47690;39.202;-77.198;2023-08-06T02:29:21;100145.25;;;25.74;80.49
50105;BME280;47690;39.202;-77.198;2023-08-06T02:31:50;100153.44;;;25.71;80.49
50105;BME280;47690;39.202;-77.198;2023-08-06T02:34:22;100147.31;;;25.71;80.62
50105;BME280;47690;39.202;-77.198;2023-08-06T02:36:55;100155.34;;;25.69;80.89
50105;BME280;47690;39.202;-77.198;2023-08-06T02:39:25;100155.47;;;25.68;80.79
50105;BME280;47690;39.202;-77.198;2023-08-06T02:41:58;100159.06;;;25.67;80.80
50105;BME280;47690;39.202;-77.198;2023-08-06T02:44:31;100150.44;;;25.64;80.74
50105;BME280;47690;39.202;-77.198;2023-08-06T02:47:03;100152.25;;;25.64;80.74
50105;BME280;47690;39.202;-77.198;2023-08-06T02:49:38;100146.00;;;25.65;80.75
50105;BME280;47690;39.202;-77.198;2023-08-06T02:52:10;100152.34;;;25.62;80.94
50105;BME280;47690;39.202;-77.198;2023-08-06T02:54:42;100155.13;;;25.61;80.87
50105;BME280;47690;39.202;-77.198;2023-08-06T02:57:15;100151.06;;;25.57;80.77
50105;BME280;47690;39.202;-77.198;2023-08-06T02:59:47;100148.44;;;25.57;81.19
50105;BME280;47690;39.202;-77.198;2023-08-06T03:02:22;100148.53;;;25.55;81.20
50105;BME280;47690;39.202;-77.198;2023-08-06T03:05:01;100151.28;;;25.54;80.98
50105;BME280;47690;39.202;-77.198;2023-08-06T03:07:38;100150.59;;;25.52;80.91
50105;BME280;47690;39.202;-77.198;2023-08-06T03:10:15;100153.31;;;25.50;81.28
50105;BME280;47690;39.202;-77.198;2023-08-06T03:12:45;100156.09;;;25.48;81.02
50105;BME280;47690;39.202;-77.198;2023-08-06T03:15:17;100157.28;;;25.44;81.38
50105;BME280;47690;39.202;-77.198;2023-08-06T03:17:49;100153.94;;;25.42;81.16
50105;BME280;47690;39.202;-77.198;2023-08-06T03:20:21;100165.44;;;25.41;81.39
50105;BME280;47690;39.202;-77.198;2023-08-06T03:22:52;100158.63;;;25.39;81.40
50105;BME280;47690;39.202;-77.198;2023-08-06T03:25:23;100170.94;;;25.38;81.27
50105;BME280;47690;39.202;-77.198;2023-08-06T03:27:54;100162.31;;;25.36;81.41
50105;BME280;47690;39.202;-77.198;2023-08-06T03:30:25;100165.06;;;25.34;81.27
50105;BME280;47690;39.202;-77.198;2023-08-06T03:32:55;100164.38;;;25.32;81.42
50105;BME280;47690;39.202;-77.198;2023-08-06T03:35:25;100167.25;;;25.29;81.27
50105;BME280;47690;39.202;-77.198;2023-08-06T03:37:55;100177.91;;;25.28;81.19
50105;BME280;47690;39.202;-77.198;2023-08-06T03:40:25;100184.16;;;25.27;81.33
50105;BME280;47690;39.202;-77.198;2023-08-06T03:42:57;100185.94;;;25.26;81.51
50105;BME280;47690;39.202;-77.198;2023-08-06T03:45:29;100186.19;;;25.23;81.58
50105;BME280;47690;39.202;-77.198;2023-08-06T03:48:01;100192.66;;;25.19;81.06
50105;BME280;47690;39.202;-77.198;2023-08-06T03:50:31;100193.72;;;25.16;81.61
50105;BME280;47690;39.202;-77.198;2023-08-06T03:53:11;100189.53;;;25.14;81.25
50105;BME280;47690;39.202;-77.198;2023-08-06T03:55:42;100187.13;;;25.10;81.39
50105;BME280;47690;39.202;-77.198;2023-08-06T03:58:11;100198.75;;;25.08;81.43
50105;BME280;47690;39.202;-77.198;2023-08-06T04:00:43;100203.31;;;25.06;81.65
50105;BME280;47690;39.202;-77.198;2023-08-06T04:03:14;100197.31;;;25.04;81.65
50105;BME280;47690;39.202;-77.198;2023-08-06T04:05:45;100203.41;;;25.04;81.47
50105;BME280;47690;39.202;-77.198;2023-08-06T04:08:14;100204.63;;;25.00;81.50
50105;BME280;47690;39.202;-77.198;2023-08-06T04:10:43;100209.03;;;25.00;81.65
50105;BME280;47690;39.202;-77.198;2023-08-06T04:13:14;100202.22;;;24.97;81.33
50105;BME280;47690;39.202;-77.198;2023-08-06T04:15:45;100195.28;;;24.96;81.58
50105;BME280;47690;39.202;-77.198;2023-08-06T04:18:14;100199.81;;;24.94;81.62
50105;BME280;47690;39.202;-77.198;2023-08-06T04:20:46;100201.59;;;24.93;81.66
50105;BME280;47690;39.202;-77.198;2023-08-06T04:23:22;100204.38;;;24.92;81.61
50105;BME280;47690;39.202;-77.198;2023-08-06T04:25:59;100199.22;;;24.90;81.79
50105;BME280;47690;39.202;-77.198;2023-08-06T04:28:35;100201.25;;;24.87;81.56
50105;BME280;47690;39.202;-77.198;2023-08-06T04:31:10;100204.72;;;24.87;81.36
50105;BME280;47690;39.202;-77.198;2023-08-06T04:33:43;100206.72;;;24.83;82.02
50105;BME280;47690;39.202;-77.198;2023-08-06T04:36:17;100203.28;;;24.83;81.86
50105;BME280;47690;39.202;-77.198;2023-08-06T04:38:48;100205.06;;;24.82;81.67
50105;BME280;47690;39.202;-77.198;2023-08-06T04:41:19;100202.66;;;24.79;81.65
50105;BME280;47690;39.202;-77.198;2023-08-06T04:43:50;100200.97;;;24.78;81.89
50105;BME280;47690;39.202;-77.198;2023-08-06T04:46:22;100215.84;;;24.79;81.99
50105;BME280;47690;39.202;-77.198;2023-08-06T04:48:54;100214.97;;;24.79;82.08
50105;BME280;47690;39.202;-77.198;2023-08-06T04:51:25;100208.03;;;24.78;82.17
50105;BME280;47690;39.202;-77.198;2023-08-06T04:53:56;100208.03;;;24.78;81.91
50105;BME280;47690;39.202;-77.198;2023-08-06T04:56:27;100200.22;;;24.76;81.97
50105;BME280;47690;39.202;-77.198;2023-08-06T04:59:01;100201.19;;;24.75;82.11
50105;BME280;47690;39.202;-77.198;2023-08-06T05:01:35;100207.53;;;24.73;81.98
50105;BME280;47690;39.202;-77.198;2023-08-06T05:04:10;100209.31;;;24.72;82.18
50105;BME280;47690;39.202;-77.198;2023-08-06T05:06:39;100208.63;;;24.70;82.01
50105;BME280;47690;39.202;-77.198;2023-08-06T05:09:11;100209.53;;;24.69;82.11
50105;BME280;47690;39.202;-77.198;2023-08-06T05:11:43;100202.59;;;24.68;82.24
50105;BME280;47690;39.202;-77.198;2023-08-06T05:14:13;100207.06;;;24.67;82.35
50105;BME280;47690;39.202;-77.198;2023-08-06T05:16:43;100199.25;;;24.66;82.16
50105;BME280;47690;39.202;-77.198;2023-08-06T05:19:13;100200.22;;;24.65;82.37
50105;BME280;47690;39.202;-77.198;2023-08-06T05:21:43;100196.72;;;24.64;82.18
50105;BME280;47690;39.202;-77.198;2023-08-06T05:24:12;100199.38;;;24.64;81.97
50105;BME280;47690;39.202;-77.198;2023-08-06T05:26:43;100196.00;;;24.62;82.00
50105;BME280;47690;39.202;-77.198;2023-08-06T05:29:17;100192.41;;;24.63;82.38
50105;BME280;47690;39.202;-77.198;2023-08-06T05:31:46;100193.50;;;24.61;82.21
50105;BME280;47690;39.202;-77.198;2023-08-06T05:34:17;100194.44;;;24.60;82.27
50105;BME280;47690;39.202;-77.198;2023-08-06T05:36:47;100198.88;;;24.59;82.08
50105;BME280;47690;39.202;-77.198;2023-08-06T05:39:18;100196.25;;;24.59;82.22
50105;BME280;47690;39.202;-77.198;2023-08-06T05:41:47;100194.69;;;24.57;82.33
50105;BME280;47690;39.202;-77.198;2023-08-06T05:44:17;100192.16;;;24.55;82.29
50105;BME280;47690;39.202;-77.198;2023-08-06T05:46:47;100191.34;;;24.54;82.39
50105;BME280;47690;39.202;-77.198;2023-08-06T05:49:17;100194.91;;;24.53;82.41
50105;BME280;47690;39.202;-77.198;2023-08-06T05:51:48;100200.16;;;24.53;82.16
50105;BME280;47690;39.202;-77.198;2023-08-06T05:54:19;100201.13;;;24.52;82.38
50105;BME280;47690;39.202;-77.198;2023-08-06T05:56:49;100202.09;;;24.51;82.32
50105;BME280;47690;39.202;-77.198;2023-08-06T05:59:21;100206.53;;;24.51;82.23
50105;BME280;47690;39.202;-77.198;2023-08-06T06:01:52;100199.56;;;24.50;82.02
50105;BME280;47690;39.202;-77.198;2023-08-06T06:04:25;100193.56;;;24.48;82.28
50105;BME280;47690;39.202;-77.198;2023-08-06T06:06:55;100192.00;;;24.45;82.15
50105;BME280;47690;39.202;-77.198;2023-08-06T06:09:25;100187.69;;;24.44;82.74
50105;BME280;47690;39.202;-77.198;2023-08-06T06:11:55;100202.53;;;24.45;82.45
50105;BME280;47690;39.202;-77.198;2023-08-06T06:14:25;100197.41;;;24.44;82.26
50105;BME280;47690;39.202;-77.198;2023-08-06T06:16:54;100203.75;;;24.41;82.32
50105;BME280;47690;39.202;-77.198;2023-08-06T06:19:23;100206.38;;;24.41;82.39
50105;BME280;47690;39.202;-77.198;2023-08-06T06:21:56;100205.63;;;24.39;81.98
50105;BME280;47690;39.202;-77.198;2023-08-06T06:24:27;100200.50;;;24.37;82.27
50105;BME280;47690;39.202;-77.198;2023-08-06T06:27:01;100202.53;;;24.34;82.21
50105;BME280;47690;39.202;-77.198;2023-08-06T06:29:31;100199.13;;;24.32;82.18
50105;BME280;47690;39.202;-77.198;2023-08-06T06:32:05;100199.28;;;24.30;82.30
50105;BME280;47690;39.202;-77.198;2023-08-06T06:34:38;100189.69;;;24.29;82.63
50105;BME280;47690;39.202;-77.198;2023-08-06T06:37:10;100193.25;;;24.28;82.33
50105;BME280;47690;39.202;-77.198;2023-08-06T06:39:41;100193.41;;;24.26;82.37
50105;BME280;47690;39.202;-77.198;2023-08-06T06:42:15;100198.66;;;24.26;82.61
50105;BME280;47690;39.202;-77.198;2023-08-06T06:44:53;100194.47;;;24.24;82.46
50105;BME280;47690;39.202;-77.198;2023-08-06T06:47:23;100185.72;;;24.23;82.50
50105;BME280;47690;39.202;-77.198;2023-08-06T06:49:54;100175.31;;;24.22;82.62
50105;BME280;47690;39.202;-77.198;2023-08-06T06:52:27;100177.22;;;24.20;82.46
50105;BME280;47690;39.202;-77.198;2023-08-06T06:54:57;100175.53;;;24.19;82.40
50105;BME280;47690;39.202;-77.198;2023-08-06T06:57:27;100177.34;;;24.18;82.73
50105;BME280;47690;39.202;-77.198;2023-08-06T06:59:59;100181.84;;;24.16;82.49
50105;BME280;47690;39.202;-77.198;2023-08-06T07:02:35;100177.66;;;24.13;82.29
50105;BME280;47690;39.202;-77.198;2023-08-06T07:05:08;100174.31;;;24.11;82.72
50105;BME280;47690;39.202;-77.198;2023-08-06T07:07:39;100180.63;;;24.09;82.46
50105;BME280;47690;39.202;-77.198;2023-08-06T07:10:09;100187.56;;;24.10;82.56
50105;BME280;47690;39.202;-77.198;2023-08-06T07:12:41;100187.69;;;24.08;82.55
50105;BME280;47690;39.202;-77.198;2023-08-06T07:15:11;100185.16;;;24.07;82.52
50105;BME280;47690;39.202;-77.198;2023-08-06T07:17:44;100184.31;;;24.06;82.53
50105;BME280;47690;39.202;-77.198;2023-08-06T07:20:14;100174.72;;;24.05;82.30
50105;BME280;47690;39.202;-77.198;2023-08-06T07:22:46;100169.59;;;24.04;82.11
50105;BME280;47690;39.202;-77.198;2023-08-06T07:25:19;100168.34;;;23.96;82.68
50105;BME280;47690;39.202;-77.198;2023-08-06T07:27:52;100169.41;;;23.94;82.53
50105;BME280;47690;39.202;-77.198;2023-08-06T07:30:22;100172.25;;;23.91;83.03
50105;BME280;47690;39.202;-77.198;2023-08-06T07:32:53;100178.47;;;23.90;83.04
50105;BME280;47690;39.202;-77.198;2023-08-06T07:35:23;100182.06;;;23.88;82.88
50105;BME280;47690;39.202;-77.198;2023-08-06T07:37:53;100176.78;;;23.88;83.06
50105;BME280;47690;39.202;-77.198;2023-08-06T07:40:23;100186.25;;;23.91;83.03
50105;BME280;47690;39.202;-77.198;2023-08-06T07:42:55;100177.66;;;23.89;83.13
50105;BME280;47690;39.202;-77.198;2023-08-06T07:45:26;100173.22;;;23.90;83.33
50105;BME280;47690;39.202;-77.198;2023-08-06T07:47:57;100176.78;;;23.88;83.05
50105;BME280;47690;39.202;-77.198;2023-08-06T07:50:29;100186.50;;;23.88;83.21
50105;BME280;47690;39.202;-77.198;2023-08-06T07:52:59;100190.28;;;23.84;83.00
50105;BME280;47690;39.202;-77.198;2023-08-06T07:55:29;100185.97;;;23.83;82.83
50105;BME280;47690;39.202;-77.198;2023-08-06T07:57:59;100196.69;;;23.80;83.04
50105;BME280;47690;39.202;-77.198;2023-08-06T08:00:29;100189.78;;;23.79;83.02
50105;BME280;47690;39.202;-77.198;2023-08-06T08:02:59;100190.09;;;23.74;83.55
50105;BME280;47690;39.202;-77.198;2023-08-06T08:05:30;100189.16;;;23.75;83.29
50105;BME280;47690;39.202;-77.198;2023-08-06T08:07:59;100181.38;;;23.73;83.05
50105;BME280;47690;39.202;-77.198;2023-08-06T08:10:31;100184.13;;;23.72;83.13
50105;BME280;47690;39.202;-77.198;2023-08-06T08:13:02;100179.69;;;23.72;82.88
50105;BME280;47690;39.202;-77.198;2023-08-06T08:15:34;100181.69;;;23.69;82.87
50105;BME280;47690;39.202;-77.198;2023-08-06T08:18:07;100181.81;;;23.67;82.88
50105;BME280;47690;39.202;-77.198;2023-08-06T08:20:39;100175.72;;;23.67;82.97
50105;BME280;47690;39.202;-77.198;2023-08-06T08:23:08;100168.78;;;23.66;82.90
50105;BME280;47690;39.202;-77.198;2023-08-06T08:25:38;100174.28;;;23.63;82.93
50105;BME280;47690;39.202;-77.198;2023-08-06T08:28:08;100178.78;;;23.60;82.79
50105;BME280;47690;39.202;-77.198;2023-08-06T08:30:43;100173.53;;;23.60;82.89
50105;BME280;47690;39.202;-77.198;2023-08-06T08:33:13;100175.53;;;23.57;82.58
50105;BME280;47690;39.202;-77.198;2023-08-06T08:35:42;100167.03;;;23.53;82.73
50105;BME280;47690;39.202;-77.198;2023-08-06T08:38:12;100168.81;;;23.53;82.71
50105;BME280;47690;39.202;-77.198;2023-08-06T08:40:46;100174.19;;;23.51;82.80
50105;BME280;47690;39.202;-77.198;2023-08-06T08:43:22;100172.72;;;23.47;83.05
50105;BME280;47690;39.202;-77.198;2023-08-06T08:45:53;100171.88;;;23.46;82.82
50105;BME280;47690;39.202;-77.198;2023-08-06T08:48:31;100172.94;;;23.44;82.91
50105;BME280;47690;39.202;-77.198;2023-08-06T08:51:02;100175.66;;;23.42;82.77
50105;BME280;47690;39.202;-77.198;2023-08-06T08:53:33;100174.94;;;23.40;82.91
50105;BME280;47690;39.202;-77.198;2023-08-06T08:56:08;100175.91;;;23.39;83.01
50105;BME280;47690;39.202;-77.198;2023-08-06T08:58:39;100176.00;;;23.38;82.77
50105;BME280;47690;39.202;-77.198;2023-08-06T09:01:11;100176.22;;;23.35;82.69
50105;BME280;47690;39.202;-77.198;2023-08-06T09:03:43;100180.63;;;23.34;82.91
50105;BME280;47690;39.202;-77.198;2023-08-06T09:06:17;100183.25;;;23.34;82.76
50105;BME280;47690;39.202;-77.198;2023-08-06T09:09:00;100175.47;;;23.32;82.29
50105;BME280;47690;39.202;-77.198;2023-08-06T09:11:37;100180.00;;;23.30;82.76
50105;BME280;47690;39.202;-77.198;2023-08-06T09:14:13;100187.94;;;23.29;82.57
50105;BME280;47690;39.202;-77.198;2023-08-06T09:16:43;100182.81;;;23.27;82.23
50105;BME280;47690;39.202;-77.198;2023-08-06T09:19:15;100174.22;;;23.25;82.24
50105;BME280;47690;39.202;-77.198;2023-08-06T09:21:46;100181.34;;;23.23;82.33
50105;BME280;47690;39.202;-77.198;2023-08-06T09:24:19;100184.09;;;23.22;81.97
50105;BME280;47690;39.202;-77.198;2023-08-06T09:26:50;100186.09;;;23.18;82.12
50105;BME280;47690;39.202;-77.198;2023-08-06T09:29:22;100189.66;;;23.17;82.32
50105;BME280;47690;39.202;-77.198;2023-08-06T09:31:54;100191.56;;;23.15;82.33
50105;BME280;47690;39.202;-77.198;2023-08-06T09:34:23;100187.34;;;23.12;82.06
50105;BME280;47690;39.202;-77.198;2023-08-06T09:36:57;100197.84;;;23.12;82.29
50105;BME280;47690;39.202;-77.198;2023-08-06T09:39:30;100201.53;;;23.10;82.32
50105;BME280;47690;39.202;-77.198;2023-08-06T09:42:01;100198.06;;;23.09;82.29
50105;BME280;47690;39.202;-77.198;2023-08-06T09:44:41;100199.03;;;23.08;82.10
50105;BME280;47690;39.202;-77.198;2023-08-06T09:47:11;100197.34;;;23.07;82.18
50105;BME280;47690;39.202;-77.198;2023-08-06T09:49:42;100204.38;;;23.06;82.21
50105;BME280;47690;39.202;-77.198;2023-08-06T09:52:13;100213.13;;;23.07;81.98
50105;BME280;47690;39.202;-77.198;2023-08-06T09:54:51;100203.53;;;23.06;82.06
50105;BME280;47690;39.202;-77.198;2023-08-06T09:57:25;100212.47;;;23.03;82.12
50105;BME280;47690;39.202;-77.198;2023-08-06T09:59:57;100211.72;;;23.01;82.44
50105;BME280;47690;39.202;-77.198;2023-08-06T10:02:41;100217.09;;;23.00;82.39
50105;BME280;47690;39.202;-77.198;2023-08-06T10:05:14;100213.72;;;22.98;82.13
50105;BME280;47690;39.202;-77.198;2023-08-06T10:07:45;100206.78;;;22.97;82.18
50105;BME280;47690;39.202;-77.198;2023-08-06T10:10:17;100200.81;;;22.95;82.11
50105;BME280;47690;39.202;-77.198;2023-08-06T10:12:54;100203.53;;;22.93;81.92
50105;BME280;47690;39.202;-77.198;2023-08-06T10:15:30;100199.22;;;22.92;82.03
50105;BME280;47690;39.202;-77.198;2023-08-06T10:18:03;100201.84;;;22.92;81.96
50105;BME280;47690;39.202;-77.198;2023-08-06T10:20:38;100198.50;;;22.90;82.18
50105;BME280;47690;39.202;-77.198;2023-08-06T10:23:10;100197.66;;;22.89;81.93
50105;BME280;47690;39.202;-77.198;2023-08-06T10:25:43;100198.59;;;22.88;82.29
50105;BME280;47690;39.202;-77.198;2023-08-06T10:28:39;100210.88;;;22.88;81.87
50105;BME280;47690;39.202;-77.198;2023-08-06T10:31:11;100209.19;;;22.87;82.15
50105;BME280;47690;39.202;-77.198;2023-08-06T10:33:45;100204.91;;;22.86;82.26
50105;BME280;47690;39.202;-77.198;2023-08-06T10:36:18;100213.63;;;22.86;82.22
50105;BME280;47690;39.202;-77.198;2023-08-06T10:38:50;100221.38;;;22.88;82.48
50105;BME280;47690;39.202;-77.198;2023-08-06T10:41:27;100216.88;;;22.90;82.35
50105;BME280;47690;39.202;-77.198;2023-08-06T10:44:11;100212.59;;;22.89;82.06
50105;BME280;47690;39.202;-77.198;2023-08-06T10:46:43;100219.59;;;22.88;82.57
50105;BME280;47690;39.202;-77.198;2023-08-06T10:49:22;100217.19;;;22.85;82.45
50105;BME280;47690;39.202;-77.198;2023-08-06T10:51:52;100229.38;;;22.86;82.52
50105;BME280;47690;39.202;-77.198;2023-08-06T10:54:25;100213.72;;;22.85;82.87
50105;BME280;47690;39.202;-77.198;2023-08-06T10:56:57;100214.66;;;22.84;82.75
50105;BME280;47690;39.202;-77.198;2023-08-06T10:59:27;100220.75;;;22.84;82.81
50105;BME280;47690;39.202;-77.198;2023-08-06T11:01:59;100210.25;;;22.84;82.50
50105;BME280;47690;39.202;-77.198;2023-08-06T11:04:50;100210.88;;;22.88;82.64
50105;BME280;47690;39.202;-77.198;2023-08-06T11:07:38;100219.69;;;22.87;82.77
50105;BME280;47690;39.202;-77.198;2023-08-06T11:10:13;100219.50;;;22.90;83.30
50105;BME280;47690;39.202;-77.198;2023-08-06T11:12:43;100219.50;;;22.90;82.88
50105;BME280;47690;39.202;-77.198;2023-08-06T11:15:13;100215.94;;;22.91;82.72
50105;BME280;47690;39.202;-77.198;2023-08-06T11:17:44;100212.38;;;22.92;83.03
50105;BME280;47690;39.202;-77.198;2023-08-06T11:20:15;100217.53;;;22.94;83.43
50105;BME280;47690;39.202;-77.198;2023-08-06T11:23:45;100214.91;;;22.94;83.08
50105;BME280;47690;39.202;-77.198;2023-08-06T11:26:22;100209.41;;;22.97;83.09
50105;BME280;47690;39.202;-77.198;2023-08-06T11:28:55;100215.53;;;22.97;83.59
50105;BME280;47690;39.202;-77.198;2023-08-06T11:31:27;100214.47;;;23.00;83.51
50105;BME280;47690;39.202;-77.198;2023-08-06T11:34:14;100208.16;;;23.02;83.82
50105;BME280;47690;39.202;-77.198;2023-08-06T11:36:53;100210.59;;;23.05;83.47
50105;BME280;47690;39.202;-77.198;2023-08-06T11:39:22;100205.97;;;23.09;83.90
50105;BME280;47690;39.202;-77.198;2023-08-06T11:41:55;100206.50;;;23.14;83.71
50105;BME280;47690;39.202;-77.198;2023-08-06T11:44:30;100213.19;;;23.18;83.85
50105;BME280;47690;39.202;-77.198;2023-08-06T11:47:06;100213.94;;;23.20;84.18
50105;BME280;47690;39.202;-77.198;2023-08-06T11:52:26;100214.22;;;23.29;84.15
50105;BME280;47690;39.202;-77.198;2023-08-06T11:57:45;100220.16;;;23.32;84.41
50105;BME280;47690;39.202;-77.198;2023-08-06T12:00:16;100223.53;;;23.35;84.27
50105;BME280;47690;39.202;-77.198;2023-08-06T12:02:51;100221.63;;;23.37;84.23
50105;BME280;47690;39.202;-77.198;2023-08-06T12:05:24;100225.84;;;23.39;83.97
50105;BME280;47690;39.202;-77.198;2023-08-06T12:08:00;100223.09;;;23.41;84.10
50105;BME280;47690;39.202;-77.198;2023-08-06T12:10:31;100226.47;;;23.43;84.56
50105;BME280;47690;39.202;-77.198;2023-08-06T12:13:01;100221.09;;;23.44;84.77
50105;BME280;47690;39.202;-77.198;2023-08-06T12:15:31;100224.47;;;23.46;84.45
50105;BME280;47690;39.202;-77.198;2023-08-06T12:18:02;100214.47;;;23.52;84.34
50105;BME280;47690;39.202;-77.198;2023-08-06T12:20:31;100218.53;;;23.56;84.67
50105;BME280;47690;39.202;-77.198;2023-08-06T12:23:01;100216.53;;;23.59;84.67
50105;BME280;47690;39.202;-77.198;2023-08-06T12:25:31;100209.19;;;23.65;84.88
50105;BME280;47690;39.202;-77.198;2023-08-06T12:28:03;100208.00;;;23.69;84.79
50105;BME280;47690;39.202;-77.198;2023-08-06T12:30:36;100204.94;;;23.75;85.10
50105;BME280;47690;39.202;-77.198;2023-08-06T12:33:12;100199.22;;;23.81;85.79
50105;BME280;47690;39.202;-77.198;2023-08-06T12:35:43;100200.56;;;23.87;85.88
50105;BME280;47690;39.202;-77.198;2023-08-06T12:38:15;100195.00;;;23.92;86.52
50105;BME280;47690;39.202;-77.198;2023-08-06T12:40:48;100179.81;;;23.95;86.73
50105;BME280;47690;39.202;-77.198;2023-08-06T12:43:21;100184.63;;;24.01;87.08
50105;BME280;47690;39.202;-77.198;2023-08-06T12:45:50;100177.28;;;24.07;87.58
50105;BME280;47690;39.202;-77.198;2023-08-06T12:48:20;100181.03;;;24.16;88.37
50105;BME280;47690;39.202;-77.198;2023-08-06T12:50:57;100181.31;;;24.24;88.59
50105;BME280;47690;39.202;-77.198;2023-08-06T12:53:29;100182.41;;;24.33;89.11
50105;BME280;47690;39.202;-77.198;2023-08-06T12:56:02;100183.41;;;24.43;89.84
50105;BME280;47690;39.202;-77.198;2023-08-06T12:58:34;100184.72;;;24.49;89.82
50105;BME280;47690;39.202;-77.198;2023-08-06T13:01:09;100190.38;;;24.55;90.10
50105;BME280;47690;39.202;-77.198;2023-08-06T13:03:40;100180.31;;;24.61;90.24
50105;BME280;47690;39.202;-77.198;2023-08-06T13:06:09;100179.16;;;24.65;90.47
50105;BME280;47690;39.202;-77.198;2023-08-06T13:08:39;100175.19;;;24.71;90.70
50105;BME280;47690;39.202;-77.198;2023-08-06T13:11:11;100172.81;;;24.79;91.51
50105;BME280;47690;39.202;-77.198;2023-08-06T13:13:41;100164.97;;;24.90;91.44